Time;durP1;ratioP1;P1;durP2;ratioP2;P2;SDS_P1;SDS_P2;PMS_P1;PMS_P2;Temp;Humidity;BMP_temperature;BMP_pressure;BME280_temperature;BME280_humidity;BME280_pressure;Samples;Min_cycle;Max_cycle;Signal;HPM_P1;HPM_P2
2023/09/29 00:01:24;;;;;;;25.73;17.20;;;18.30;99.90;;;;;;4993440;28;20207;-68
2023/09/29 00:03:49;;;;;;;18.73;15.33;;;18.30;99.90;;;;;;4989216;28;20294;-66
2023/09/29 00:06:14;;;;;;;19.90;15.80;;;18.20;99.90;;;;;;4988142;28;20255;-64
2023/09/29 00:08:41;;;;;;;17.93;15.50;;;18.20;99.90;;;;;;5002895;28;20809;-61
2023/09/29 00:11:07;;;;;;;22.97;16.93;;;18.30;99.90;;;;;;4993572;28;20236;-66
2023/09/29 00:13:32;;;;;;;16.83;14.90;;;18.30;99.90;;;;;;4992838;28;20226;-66
2023/09/29 00:15:58;;;;;;;18.87;15.40;;;18.30;99.90;;;;;;5010199;28;20839;-64
2023/09/29 00:18:23;;;;;;;21.53;14.80;;;18.40;99.90;;;;;;5003550;28;20265;-66
2023/09/29 00:20:49;;;;;;;17.17;14.40;;;18.40;99.90;;;;;;4997799;28;20225;-63
2023/09/29 00:23:15;;;;;;;21.43;15.53;;;18.40;99.90;;;;;;4991922;28;20622;-62
2023/09/29 00:25:40;;;;;;;21.40;15.93;;;18.40;99.90;;;;;;5009441;28;20321;-64
2023/09/29 00:28:06;;;;;;;17.37;13.77;;;18.40;99.90;;;;;;5002856;28;20230;-63
2023/09/29 00:30:31;;;;;;;18.13;13.97;;;18.40;99.90;;;;;;5001937;28;20223;-69
2023/09/29 00:32:57;;;;;;;17.47;14.37;;;18.40;99.90;;;;;;5000274;28;20208;-66
2023/09/29 00:37:48;;;;;;;16.63;13.77;;;18.30;99.90;;;;;;5006240;28;21041;-60
2023/09/29 00:40:14;;;;;;;20.97;14.63;;;18.20;99.90;;;;;;4997624;28;20194;-63
2023/09/29 00:42:42;;;;;;;15.93;14.27;;;18.20;99.90;;;;;;5003446;28;20660;-61
2023/09/29 00:45:08;;;;;;;20.10;15.93;;;18.30;99.90;;;;;;5003002;28;20290;-62
2023/09/29 00:47:36;;;;;;;17.23;15.10;;;18.20;99.90;;;;;;5004057;28;20984;-62
2023/09/29 00:50:09;;;;;;;16.03;14.23;;;18.20;99.90;;;;;;5000457;28;20222;-60
2023/09/29 00:52:38;;;;;;;17.37;13.97;;;18.20;99.90;;;;;;4995744;28;20888;-62
2023/09/29 00:55:06;;;;;;;18.17;14.13;;;18.30;99.90;;;;;;5000095;28;20216;-62
2023/09/29 00:57:33;;;;;;;16.57;14.83;;;18.30;99.90;;;;;;5007204;28;20535;-62
2023/09/29 01:00:00;;;;;;;17.83;15.60;;;18.30;99.90;;;;;;4992394;28;20274;-62
2023/09/29 01:02:26;;;;;;;17.47;15.77;;;18.30;99.90;;;;;;5002349;28;20690;-63
2023/09/29 01:04:53;;;;;;;16.97;15.10;;;18.30;99.90;;;;;;5000520;28;20208;-62
2023/09/29 01:07:19;;;;;;;16.27;14.57;;;18.30;99.90;;;;;;4992280;28;20206;-62
2023/09/29 01:09:44;;;;;;;17.40;15.47;;;18.30;99.90;;;;;;4997819;28;20255;-63
2023/09/29 01:12:25;;;;;;;19.23;14.63;;;18.30;99.90;;;;;;5010310;28;20955;-63
2023/09/29 01:14:50;;;;;;;20.77;14.93;;;18.20;99.90;;;;;;4991639;28;20226;-60
2023/09/29 01:17:16;;;;;;;18.23;14.43;;;18.30;99.90;;;;;;5004798;28;20237;-62
2023/09/29 01:19:42;;;;;;;17.63;15.13;;;18.20;99.90;;;;;;5005333;28;20197;-62
2023/09/29 01:22:07;;;;;;;17.43;15.60;;;18.20;99.90;;;;;;4988509;28;20233;-62
2023/09/29 01:24:32;;;;;;;17.37;15.57;;;18.20;99.90;;;;;;4997044;28;20269;-62
2023/09/29 01:26:59;;;;;;;16.70;14.07;;;18.20;99.90;;;;;;4993073;28;20252;-61
2023/09/29 01:29:25;;;;;;;18.20;15.13;;;18.20;99.90;;;;;;5001348;28;20202;-62
2023/09/29 01:31:50;;;;;;;21.03;15.17;;;18.20;99.90;;;;;;4998415;28;20206;-62
2023/09/29 01:34:15;;;;;;;17.53;15.77;;;18.20;99.90;;;;;;4999695;28;20218;-61
2023/09/29 01:36:41;;;;;;;18.17;16.27;;;18.30;99.90;;;;;;5002484;28;20270;-63
2023/09/29 01:39:06;;;;;;;15.90;14.20;;;18.30;99.90;;;;;;5008890;28;20808;-63
2023/09/29 01:41:32;;;;;;;19.50;16.03;;;18.20;99.90;;;;;;4983160;28;20225;-64
2023/09/29 01:43:58;;;;;;;18.63;16.63;;;18.20;99.90;;;;;;4986850;28;20208;-64
2023/09/29 01:46:24;;;;;;;17.17;15.37;;;18.20;99.90;;;;;;4997389;28;20208;-63
2023/09/29 01:48:50;;;;;;;17.63;15.17;;;18.30;99.90;;;;;;4993615;28;20215;-64
2023/09/29 01:51:17;;;;;;;16.77;14.80;;;18.20;99.90;;;;;;4994559;28;20668;-64
2023/09/29 01:53:42;;;;;;;16.47;14.77;;;18.30;99.90;;;;;;4991997;28;20536;-63
2023/09/29 01:56:08;;;;;;;16.93;15.20;;;18.30;99.90;;;;;;5000645;28;20756;-63
2023/09/29 01:58:33;;;;;;;15.83;14.43;;;18.30;99.90;;;;;;4994622;28;20221;-64
2023/09/29 02:00:59;;;;;;;18.07;14.23;;;18.30;99.90;;;;;;4998973;28;20281;-63
2023/09/29 02:03:24;;;;;;;18.37;13.97;;;18.30;99.90;;;;;;5008529;28;20273;-63
2023/09/29 02:05:50;;;;;;;16.03;14.40;;;18.30;99.90;;;;;;5002582;28;20204;-63
2023/09/29 02:08:18;;;;;;;16.47;14.87;;;18.30;99.90;;;;;;5009755;28;20204;-63
2023/09/29 02:10:45;;;;;;;15.87;14.37;;;18.30;99.90;;;;;;4993064;28;20193;-65
2023/09/29 02:13:11;;;;;;;15.93;14.33;;;18.30;99.90;;;;;;5000817;28;21017;-64
2023/09/29 02:15:36;;;;;;;15.47;13.50;;;18.30;99.90;;;;;;4997980;28;20237;-63
2023/09/29 02:18:04;;;;;;;15.03;13.53;;;18.30;99.90;;;;;;5005340;28;20197;-63
2023/09/29 02:20:30;;;;;;;17.17;14.40;;;18.30;99.90;;;;;;4996684;28;20285;-63
2023/09/29 02:22:56;;;;;;;19.90;15.17;;;18.30;99.90;;;;;;4992179;28;20203;-63
2023/09/29 02:25:29;;;;;;;15.37;13.87;;;18.30;99.90;;;;;;5001689;28;20197;-64
2023/09/29 02:27:59;;;;;;;16.57;13.60;;;18.20;99.90;;;;;;4999168;28;20195;-64
2023/09/29 02:30:26;;;;;;;15.13;13.47;;;18.30;99.90;;;;;;5003125;28;20572;-63
2023/09/29 02:32:53;;;;;;;15.80;12.33;;;18.30;99.90;;;;;;4992103;28;20258;-63
2023/09/29 02:35:19;;;;;;;13.97;12.57;;;18.30;99.90;;;;;;4998273;28;20227;-63
2023/09/29 02:37:46;;;;;;;14.07;12.57;;;18.20;99.90;;;;;;4990528;28;20222;-63
2023/09/29 02:40:12;;;;;;;15.47;14.00;;;18.20;99.90;;;;;;4992769;28;20252;-62
2023/09/29 02:42:38;;;;;;;14.10;12.57;;;18.20;99.90;;;;;;5003266;28;20239;-62
2023/09/29 02:45:05;;;;;;;13.37;12.07;;;18.20;99.90;;;;;;4995097;28;21090;-62
2023/09/29 02:47:31;;;;;;;15.80;12.77;;;18.20;99.90;;;;;;5012681;28;20201;-63
2023/09/29 02:49:57;;;;;;;14.17;12.73;;;18.20;99.90;;;;;;4992045;28;20193;-63
2023/09/29 02:52:23;;;;;;;14.20;12.67;;;18.20;99.90;;;;;;4998005;28;20202;-62
2023/09/29 02:54:49;;;;;;;14.63;12.97;;;18.20;99.90;;;;;;4995832;28;20217;-63
2023/09/29 02:57:20;;;;;;;15.90;12.20;;;18.20;99.90;;;;;;5005061;28;20201;-63
2023/09/29 02:59:46;;;;;;;13.40;12.10;;;18.20;99.90;;;;;;4992682;28;20217;-64
2023/09/29 03:02:12;;;;;;;12.70;11.53;;;18.20;99.90;;;;;;4996852;28;20210;-63
2023/09/29 03:04:39;;;;;;;16.23;12.37;;;18.20;99.90;;;;;;5005554;28;20207;-62
2023/09/29 03:07:05;;;;;;;13.30;12.00;;;18.10;99.90;;;;;;4999182;28;20199;-62
2023/09/29 03:09:33;;;;;;;14.30;11.60;;;18.10;99.90;;;;;;4997779;28;20201;-61
2023/09/29 03:12:00;;;;;;;13.07;11.90;;;18.10;99.90;;;;;;4989760;28;20217;-61
2023/09/29 03:14:25;;;;;;;18.97;12.77;;;18.20;99.90;;;;;;5007316;28;20203;-61
2023/09/29 03:16:53;;;;;;;12.80;11.50;;;18.20;99.90;;;;;;4993037;28;20222;-61
2023/09/29 03:19:19;;;;;;;13.07;11.77;;;18.20;99.90;;;;;;4991337;28;20276;-62
2023/09/29 03:21:45;;;;;;;12.83;11.23;;;18.20;99.90;;;;;;4999202;28;20208;-62
2023/09/29 03:24:10;;;;;;;13.00;11.40;;;18.10;99.90;;;;;;4997514;28;20286;-62
2023/09/29 03:26:36;;;;;;;15.30;11.23;;;18.10;99.90;;;;;;5001108;28;20213;-62
2023/09/29 03:29:01;;;;;;;14.53;10.73;;;18.10;99.90;;;;;;4999336;28;20287;-62
2023/09/29 03:31:27;;;;;;;14.77;12.60;;;18.00;99.90;;;;;;4990319;28;20204;-62
2023/09/29 03:33:52;;;;;;;13.23;11.73;;;18.00;99.90;;;;;;4999288;28;20275;-63
2023/09/29 03:36:21;;;;;;;12.70;11.53;;;18.10;99.90;;;;;;5001271;28;20236;-63
2023/09/29 03:38:47;;;;;;;12.37;10.83;;;18.10;99.90;;;;;;4996480;28;20211;-67
2023/09/29 03:41:13;;;;;;;12.37;10.80;;;18.20;99.90;;;;;;5001227;28;20478;-63
2023/09/29 03:43:39;;;;;;;12.67;11.37;;;18.20;99.90;;;;;;5017333;28;20612;-63
2023/09/29 03:46:06;;;;;;;14.80;12.10;;;18.20;99.90;;;;;;4995636;28;20666;-63
2023/09/29 03:48:32;;;;;;;12.77;11.67;;;18.20;99.90;;;;;;4998648;28;20227;-65
2023/09/29 03:50:57;;;;;;;14.17;11.53;;;18.20;99.90;;;;;;4992072;28;20300;-64
2023/09/29 03:53:28;;;;;;;12.73;11.53;;;18.00;99.90;;;;;;4991068;28;20670;-61
2023/09/29 03:55:54;;;;;;;13.27;11.97;;;18.00;99.90;;;;;;4990576;28;20221;-63
2023/09/29 03:58:19;;;;;;;14.07;12.63;;;18.10;99.90;;;;;;5002436;28;20221;-65
2023/09/29 04:00:45;;;;;;;13.10;11.67;;;18.10;99.90;;;;;;5004131;28;20211;-65
2023/09/29 04:03:10;;;;;;;13.70;12.33;;;18.00;99.90;;;;;;5000372;28;20208;-65
2023/09/29 04:05:36;;;;;;;13.73;12.33;;;18.00;99.90;;;;;;4995936;28;20206;-66
2023/09/29 04:08:01;;;;;;;12.53;11.33;;;17.90;99.90;;;;;;4992258;28;20285;-62
2023/09/29 04:10:28;;;;;;;12.90;11.23;;;17.90;99.90;;;;;;4989987;28;20225;-62
2023/09/29 04:12:53;;;;;;;13.17;11.77;;;17.80;99.90;;;;;;4996597;28;20657;-62
2023/09/29 04:15:19;;;;;;;13.83;11.93;;;17.80;99.90;;;;;;4992027;28;20307;-64
2023/09/29 04:17:44;;;;;;;13.50;12.10;;;17.80;99.90;;;;;;4989937;28;20249;-61
2023/09/29 04:20:11;;;;;;;13.50;12.10;;;17.70;99.90;;;;;;4993068;28;20207;-66
2023/09/29 04:22:36;;;;;;;13.60;11.43;;;17.80;99.90;;;;;;4998362;28;20303;-60
2023/09/29 04:25:02;;;;;;;13.10;11.80;;;17.70;99.90;;;;;;5006595;28;20764;-60
2023/09/29 04:27:28;;;;;;;15.50;13.37;;;17.70;99.90;;;;;;4997654;28;20200;-60
2023/09/29 04:29:54;;;;;;;13.87;12.17;;;17.60;99.90;;;;;;4997614;28;20205;-64
2023/09/29 04:32:20;;;;;;;14.80;13.23;;;17.70;99.90;;;;;;5002967;28;20285;-64
2023/09/29 04:34:45;;;;;;;13.47;12.23;;;17.50;99.90;;;;;;4993381;28;20329;-64
2023/09/29 04:37:11;;;;;;;13.53;12.33;;;17.50;99.90;;;;;;4995037;28;20686;-65
2023/09/29 04:39:37;;;;;;;13.90;12.27;;;17.50;99.90;;;;;;4994256;28;20202;-65
2023/09/29 04:42:04;;;;;;;14.17;12.83;;;17.60;99.90;;;;;;4991750;28;20227;-60
2023/09/29 04:44:30;;;;;;;12.67;11.27;;;17.60;99.90;;;;;;4985880;28;20205;-60
2023/09/29 04:46:55;;;;;;;16.20;11.90;;;17.50;99.90;;;;;;4995156;28;20188;-59
2023/09/29 04:49:21;;;;;;;13.27;11.83;;;17.50;99.90;;;;;;4989990;28;20206;-60
2023/09/29 04:51:46;;;;;;;12.93;11.50;;;17.50;99.90;;;;;;4993584;28;20205;-60
2023/09/29 04:54:12;;;;;;;13.13;11.83;;;17.40;99.90;;;;;;4999304;28;20288;-60
2023/09/29 04:56:38;;;;;;;13.23;11.83;;;17.30;99.90;;;;;;4999419;28;20278;-60
2023/09/29 04:59:05;;;;;;;13.10;11.90;;;17.30;99.90;;;;;;4997170;28;20312;-65
2023/09/29 05:01:31;;;;;;;13.73;12.17;;;17.20;99.90;;;;;;4998640;28;20208;-64
2023/09/29 05:03:56;;;;;;;13.37;11.60;;;17.20;99.90;;;;;;5001422;28;20201;-63
2023/09/29 05:06:23;;;;;;;12.43;11.13;;;17.30;99.90;;;;;;5004224;28;20304;-65
2023/09/29 05:08:49;;;;;;;12.63;11.53;;;17.40;99.90;;;;;;5007303;28;20614;-65
2023/09/29 05:11:25;;;;;;;12.43;11.23;;;17.20;99.90;;;;;;5004183;28;20752;-64
2023/09/29 05:13:52;;;;;;;17.10;11.43;;;17.20;99.90;;;;;;4999275;28;20685;-65
2023/09/29 05:16:18;;;;;;;13.00;11.10;;;17.20;99.90;;;;;;5005556;28;20225;-64
2023/09/29 05:18:45;;;;;;;13.00;9.97;;;17.20;99.90;;;;;;5004264;28;20202;-70
2023/09/29 05:21:11;;;;;;;11.67;10.57;;;17.20;99.90;;;;;;5006782;28;20200;-64
2023/09/29 05:23:39;;;;;;;16.73;11.60;;;17.20;99.90;;;;;;5008844;28;20210;-63
2023/09/29 05:26:07;;;;;;;10.97;9.80;;;17.20;99.90;;;;;;5002020;28;20695;-62
2023/09/29 05:28:33;;;;;;;12.67;10.30;;;17.20;99.90;;;;;;5003238;28;20476;-63
2023/09/29 05:30:59;;;;;;;11.60;10.17;;;17.20;99.90;;;;;;5019759;28;20288;-63
2023/09/29 05:33:25;;;;;;;11.57;10.20;;;17.10;99.90;;;;;;4992377;28;20200;-63
2023/09/29 05:35:51;;;;;;;13.00;10.83;;;17.00;99.90;;;;;;4995025;28;20232;-63
2023/09/29 05:38:17;;;;;;;11.53;10.33;;;17.10;99.90;;;;;;5016272;28;20201;-62
2023/09/29 05:40:47;;;;;;;11.23;10.23;;;17.10;99.90;;;;;;4997994;28;20988;-66
2023/09/29 05:43:12;;;;;;;10.53;9.47;;;17.10;99.90;;;;;;4994393;28;20215;-65
2023/09/29 05:45:38;;;;;;;14.37;10.40;;;17.10;99.90;;;;;;4988926;28;20849;-66
2023/09/29 05:48:03;;;;;;;12.17;10.17;;;17.10;99.90;;;;;;4994838;28;20745;-66
2023/09/29 05:50:29;;;;;;;9.63;8.63;;;17.20;99.90;;;;;;4996986;28;20735;-66
2023/09/29 05:52:56;;;;;;;13.63;8.97;;;17.20;99.90;;;;;;5005652;28;20617;-66
2023/09/29 05:55:22;;;;;;;14.23;10.30;;;17.10;99.90;;;;;;5000355;28;20226;-67
2023/09/29 05:57:49;;;;;;;13.43;10.17;;;17.10;99.90;;;;;;5005290;28;20274;-67
2023/09/29 06:00:15;;;;;;;12.57;9.53;;;17.20;99.90;;;;;;5002261;28;20224;-67
2023/09/29 06:02:41;;;;;;;12.77;9.30;;;17.30;99.90;;;;;;4996206;28;20239;-64
2023/09/29 06:05:07;;;;;;;17.70;10.37;;;17.30;99.90;;;;;;4992627;28;20203;-66
2023/09/29 06:07:33;;;;;;;11.23;9.37;;;17.40;99.90;;;;;;4999303;28;20227;-66
2023/09/29 06:09:59;;;;;;;11.70;9.43;;;17.40;99.90;;;;;;5007271;28;20227;-66
2023/09/29 06:12:25;;;;;;;11.40;10.03;;;17.40;99.90;;;;;;4999364;28;20682;-66
2023/09/29 06:14:50;;;;;;;10.50;8.80;;;17.30;99.90;;;;;;4992674;28;20201;-66
2023/09/29 06:17:16;;;;;;;10.27;9.27;;;17.40;99.90;;;;;;4999108;28;20212;-66
2023/09/29 06:19:41;;;;;;;11.30;10.03;;;17.40;99.90;;;;;;4997890;28;20606;-66
2023/09/29 06:22:07;;;;;;;11.03;9.17;;;17.40;99.90;;;;;;4997297;28;20202;-67
2023/09/29 06:24:33;;;;;;;11.20;9.37;;;17.40;99.90;;;;;;4996529;28;20208;-67
2023/09/29 06:26:58;;;;;;;11.80;9.37;;;17.40;99.90;;;;;;5002742;28;20251;-66
2023/09/29 06:29:24;;;;;;;10.07;9.03;;;17.30;99.90;;;;;;4999126;28;20208;-66
2023/09/29 06:31:50;;;;;;;10.47;9.07;;;17.40;99.90;;;;;;4993018;28;20212;-67
2023/09/29 06:34:16;;;;;;;11.40;9.30;;;17.50;99.90;;;;;;4999252;28;20208;-67
2023/09/29 06:36:42;;;;;;;14.33;9.03;;;17.40;99.90;;;;;;4999941;28;20239;-68
2023/09/29 06:39:08;;;;;;;14.27;8.47;;;17.50;99.90;;;;;;5001297;28;20684;-69
2023/09/29 06:41:34;;;;;;;13.53;9.10;;;17.60;99.90;;;;;;4999090;28;20214;-68
2023/09/29 06:43:59;;;;;;;10.90;9.70;;;17.60;99.90;;;;;;4995704;28;20330;-68
2023/09/29 06:46:25;;;;;;;9.50;8.60;;;17.70;99.90;;;;;;4995745;28;20212;-67
2023/09/29 06:48:52;;;;;;;10.67;8.60;;;17.70;99.90;;;;;;4995775;28;20207;-65
2023/09/29 06:51:18;;;;;;;10.07;8.37;;;17.80;99.90;;;;;;4997688;28;20232;-65
2023/09/29 06:53:43;;;;;;;9.90;8.63;;;17.80;99.90;;;;;;5007006;28;20389;-67
2023/09/29 06:56:09;;;;;;;10.63;9.57;;;17.80;99.90;;;;;;4995766;28;20217;-64
2023/09/29 06:58:34;;;;;;;10.47;9.50;;;17.80;99.90;;;;;;4998315;28;20288;-62
2023/09/29 07:01:01;;;;;;;10.80;8.67;;;17.90;99.90;;;;;;5003387;28;20196;-62
2023/09/29 07:03:29;;;;;;;10.10;9.10;;;17.90;99.90;;;;;;4999244;28;20202;-64
2023/09/29 07:05:59;;;;;;;9.57;8.57;;;17.90;99.90;;;;;;5000068;28;20222;-66
2023/09/29 07:08:25;;;;;;;14.73;8.70;;;18.00;99.90;;;;;;5005592;28;20193;-66
2023/09/29 07:10:50;;;;;;;9.33;8.20;;;18.10;99.90;;;;;;5005516;28;20191;-66
2023/09/29 07:13:16;;;;;;;12.53;8.60;;;18.10;99.90;;;;;;5005682;28;20259;-67
2023/09/29 07:15:41;;;;;;;9.00;8.20;;;18.20;99.90;;;;;;4996251;28;21026;-66
2023/09/29 07:18:10;;;;;;;11.27;9.30;;;18.30;99.90;;;;;;4993645;28;20197;-61
2023/09/29 07:20:37;;;;;;;10.67;9.17;;;18.40;99.90;;;;;;4989069;28;20911;-60
2023/09/29 07:23:03;;;;;;;12.17;8.87;;;18.40;99.90;;;;;;4999394;28;20215;-60
2023/09/29 07:25:29;;;;;;;10.57;8.17;;;18.50;99.90;;;;;;4997775;28;20627;-60
2023/09/29 07:27:55;;;;;;;10.93;8.57;;;18.60;99.90;;;;;;4995730;28;20207;-60
2023/09/29 07:30:20;;;;;;;14.53;9.17;;;18.70;99.90;;;;;;4992059;28;20256;-60
2023/09/29 07:32:46;;;;;;;10.77;8.87;;;18.80;99.90;;;;;;4994038;28;20232;-60
2023/09/29 07:35:12;;;;;;;9.90;7.43;;;18.90;99.90;;;;;;4994587;28;20217;-60
2023/09/29 07:37:38;;;;;;;8.80;7.83;;;18.90;99.90;;;;;;4988331;28;20242;-60
2023/09/29 07:40:06;;;;;;;8.47;7.67;;;19.00;99.90;;;;;;4999474;28;20216;-60
2023/09/29 07:42:32;;;;;;;11.27;7.60;;;19.00;99.90;;;;;;5001713;28;20292;-65
2023/09/29 07:44:58;;;;;;;8.43;7.57;;;19.10;99.90;;;;;;4994260;28;20865;-65
2023/09/29 07:47:23;;;;;;;9.70;7.70;;;19.20;99.90;;;;;;4990798;28;20200;-65
2023/09/29 07:49:49;;;;;;;7.80;7.10;;;19.30;99.90;;;;;;4993509;28;20218;-66
2023/09/29 07:52:15;;;;;;;10.43;8.00;;;19.40;99.90;;;;;;4998684;28;20322;-65
2023/09/29 07:54:40;;;;;;;9.90;7.33;;;19.50;99.90;;;;;;5003205;28;20211;-64
2023/09/29 07:57:06;;;;;;;8.30;7.17;;;19.50;99.90;;;;;;4992666;28;20301;-63
2023/09/29 07:59:32;;;;;;;8.23;7.50;;;19.60;99.90;;;;;;5003375;28;20571;-65
2023/09/29 08:01:58;;;;;;;7.57;6.90;;;19.60;99.90;;;;;;4994411;28;20204;-64
2023/09/29 08:04:24;;;;;;;13.33;6.97;;;19.70;99.90;;;;;;5000805;28;20750;-69
2023/09/29 08:06:50;;;;;;;9.70;7.20;;;19.80;99.90;;;;;;5003609;28;20781;-69
2023/09/29 08:09:16;;;;;;;8.47;7.67;;;19.90;99.90;;;;;;5008436;28;20515;-69
2023/09/29 08:11:42;;;;;;;7.97;7.17;;;19.90;99.90;;;;;;4998970;28;20200;-67
2023/09/29 08:14:08;;;;;;;11.60;6.30;;;20.00;99.90;;;;;;5002678;28;20734;-67
2023/09/29 08:16:34;;;;;;;6.97;6.37;;;20.10;99.90;;;;;;4999505;28;23955;-68
2023/09/29 08:19:00;;;;;;;8.77;7.87;;;20.20;99.90;;;;;;5000431;28;20207;-64
2023/09/29 08:21:26;;;;;;;9.57;7.00;;;20.30;99.90;;;;;;5004577;28;20198;-64
2023/09/29 08:23:51;;;;;;;8.10;6.97;;;20.30;99.90;;;;;;4994048;28;20224;-64
2023/09/29 08:26:17;;;;;;;7.10;6.13;;;20.40;99.90;;;;;;4990649;28;20194;-64
2023/09/29 08:28:43;;;;;;;8.17;7.33;;;20.50;99.90;;;;;;4996145;28;20203;-65
2023/09/29 08:31:17;;;;;;;6.90;6.20;;;20.60;99.90;;;;;;4990359;28;20317;-62
2023/09/29 08:33:43;;;;;;;7.40;6.37;;;20.60;99.90;;;;;;4995653;28;20196;-63
2023/09/29 08:36:09;;;;;;;8.60;5.77;;;20.70;99.90;;;;;;4989556;28;20243;-64
2023/09/29 08:38:34;;;;;;;6.83;6.23;;;20.70;99.90;;;;;;4990137;28;20297;-64
2023/09/29 08:41:03;;;;;;;8.10;6.90;;;20.70;99.90;;;;;;4988026;28;20285;-68
2023/09/29 08:43:30;;;;;;;8.70;7.27;;;20.90;99.90;;;;;;4990440;28;20295;-64
2023/09/29 08:46:00;;;;;;;9.33;6.93;;;20.90;99.90;;;;;;4998287;28;20213;-62
2023/09/29 08:48:35;;;;;;;8.47;6.30;;;20.80;99.90;;;;;;4996671;28;20764;-62
2023/09/29 08:51:02;;;;;;;7.50;6.53;;;20.80;99.90;;;;;;4993534;28;20269;-63
2023/09/29 08:53:28;;;;;;;7.20;6.57;;;21.00;99.90;;;;;;4994908;28;20202;-63
2023/09/29 08:55:55;;;;;;;10.77;6.50;;;21.00;99.90;;;;;;5000279;28;20715;-62
2023/09/29 08:58:21;;;;;;;9.47;6.67;;;21.00;99.90;;;;;;4998613;28;20656;-64
2023/09/29 09:00:48;;;;;;;7.13;5.67;;;21.00;99.90;;;;;;4995420;28;20218;-64
2023/09/29 09:03:14;;;;;;;7.20;5.60;;;21.10;99.90;;;;;;4994591;28;20543;-66
2023/09/29 09:05:39;;;;;;;7.70;6.17;;;21.20;99.90;;;;;;5000279;28;20577;-63
2023/09/29 09:08:06;;;;;;;7.07;5.93;;;21.20;99.90;;;;;;5008313;28;20268;-66
2023/09/29 09:10:34;;;;;;;11.27;6.37;;;21.30;99.90;;;;;;5007283;28;20211;-63
2023/09/29 09:13:00;;;;;;;7.27;6.60;;;21.20;99.90;;;;;;5007845;28;20227;-62
2023/09/29 09:15:26;;;;;;;10.33;6.33;;;21.30;99.90;;;;;;4993663;28;20697;-62
2023/09/29 09:17:52;;;;;;;8.63;6.23;;;21.30;99.90;;;;;;4994417;28;20208;-62
2023/09/29 09:20:18;;;;;;;7.93;6.17;;;21.20;99.90;;;;;;4993953;28;20211;-62
2023/09/29 09:22:56;;;;;;;8.87;6.73;;;21.20;99.90;;;;;;4997763;28;20286;-66
2023/09/29 09:25:35;;;;;;;10.50;5.93;;;21.20;99.90;;;;;;4994622;28;20226;-65
2023/09/29 09:28:01;;;;;;;7.30;6.20;;;21.30;99.90;;;;;;4999638;28;20677;-62
2023/09/29 09:30:27;;;;;;;6.40;5.80;;;21.20;99.90;;;;;;5009737;28;20198;-62
2023/09/29 09:32:53;;;;;;;11.23;6.67;;;21.30;99.90;;;;;;4999692;28;20203;-62
2023/09/29 09:35:26;;;;;;;8.77;6.40;;;21.40;99.90;;;;;;4997452;28;20247;-61
2023/09/29 09:37:51;;;;;;;10.47;5.80;;;21.40;99.90;;;;;;5002636;28;20967;-61
2023/09/29 09:40:19;;;;;;;8.67;6.00;;;21.40;99.90;;;;;;5006423;28;20262;-62
2023/09/29 09:42:46;;;;;;;7.97;5.63;;;21.50;99.90;;;;;;5005254;28;20345;-62
2023/09/29 09:45:13;;;;;;;6.43;5.77;;;21.50;99.90;;;;;;4994216;28;20323;-63
2023/09/29 09:47:40;;;;;;;8.20;6.37;;;21.50;99.90;;;;;;4996912;28;20259;-63
2023/09/29 09:50:09;;;;;;;6.67;5.97;;;21.60;99.90;;;;;;5003462;28;20226;-65
2023/09/29 09:52:35;;;;;;;9.03;6.17;;;21.70;99.90;;;;;;4998566;28;20203;-65
2023/09/29 09:55:10;;;;;;;10.10;6.83;;;21.80;99.90;;;;;;4996847;28;20210;-61
2023/09/29 09:57:38;;;;;;;6.63;5.57;;;21.80;99.90;;;;;;4988613;28;20540;-63
2023/09/29 10:00:10;;;;;;;8.90;5.77;;;21.90;99.90;;;;;;4999136;28;20626;-62
2023/09/29 10:02:40;;;;;;;7.40;5.20;;;21.90;99.90;;;;;;4996684;28;20268;-62
2023/09/29 10:05:22;;;;;;;6.83;6.13;;;22.00;99.90;;;;;;4991778;28;20204;-62
2023/09/29 10:07:49;;;;;;;8.87;6.00;;;22.00;99.90;;;;;;4996113;28;20279;-62
2023/09/29 10:10:40;;;;;;;10.77;6.20;;;22.10;99.90;;;;;;4996316;28;20252;-62
2023/09/29 10:13:11;;;;;;;6.63;6.13;;;22.10;99.90;;;;;;4991963;28;20201;-62
2023/09/29 10:15:40;;;;;;;10.87;6.70;;;22.20;99.90;;;;;;4988034;28;20217;-62
2023/09/29 10:18:19;;;;;;;6.80;5.63;;;22.20;99.90;;;;;;4996355;28;20199;-65
2023/09/29 10:20:55;;;;;;;5.97;5.38;;;22.30;99.90;;;;;;4895577;22;20453;-63
2023/09/29 10:23:24;;;;;;;6.63;6.03;;;22.30;99.90;;;;;;5015333;28;20203;-64
2023/09/29 10:26:02;;;;;;;6.17;5.57;;;22.40;99.90;;;;;;5022442;28;20215;-63
2023/09/29 10:28:32;;;;;;;8.67;6.10;;;22.40;99.90;;;;;;5013289;28;20199;-62
2023/09/29 10:31:10;;;;;;;6.40;5.07;;;22.40;99.90;;;;;;5006244;28;20196;-62
2023/09/29 10:33:52;;;;;;;7.00;5.30;;;22.40;99.90;;;;;;5009211;22;20562;-63
2023/09/29 10:36:20;;;;;;;8.87;5.30;;;22.40;99.90;;;;;;5013256;28;20288;-63
2023/09/29 10:38:47;;;;;;;7.22;5.50;;;22.40;99.90;;;;;;5012407;28;20226;-65
2023/09/29 10:41:14;;;;;;;11.20;5.50;;;22.50;99.90;;;;;;5013394;28;20286;-61
2023/09/29 10:43:42;;;;;;;6.23;5.63;;;22.60;99.90;;;;;;5005682;28;20219;-61
2023/09/29 10:46:09;;;;;;;7.90;5.50;;;22.70;99.90;;;;;;5011097;28;20304;-62
2023/09/29 10:48:44;;;;;;;5.60;5.10;;;22.80;99.90;;;;;;5013927;28;20958;-62
2023/09/29 10:51:10;;;;;;;6.67;5.40;;;22.90;99.90;;;;;;5007352;28;20233;-63
2023/09/29 10:53:37;;;;;;;7.03;4.55;;;22.90;99.90;;;;;;5011623;28;20255;-63
2023/09/29 10:56:03;;;;;;;5.82;4.80;;;23.10;99.90;;;;;;5019566;28;20231;-60
2023/09/29 10:58:37;;;;;;;5.95;5.10;;;23.00;99.90;;;;;;5022768;28;20317;-62
2023/09/29 11:01:03;;;;;;;7.03;5.43;;;23.00;99.90;;;;;;5025721;28;20289;-63
2023/09/29 11:03:30;;;;;;;7.33;4.60;;;22.90;99.90;;;;;;5022148;28;20207;-68
2023/09/29 11:05:58;;;;;;;5.73;4.83;;;22.60;99.90;;;;;;5018759;28;20199;-64
2023/09/29 11:08:35;;;;;;;7.10;4.97;;;22.70;99.90;;;;;;5026570;28;20673;-62
2023/09/29 11:11:03;;;;;;;5.30;4.90;;;22.70;99.90;;;;;;5013006;28;20203;-62
2023/09/29 11:13:29;;;;;;;5.97;5.40;;;22.60;99.90;;;;;;5019892;28;20214;-62
2023/09/29 11:15:56;;;;;;;8.50;5.43;;;22.80;99.90;;;;;;5021514;28;20318;-62
2023/09/29 11:18:41;;;;;;;6.88;6.28;;;22.90;99.90;;;;;;5025327;28;20192;-65
2023/09/29 11:21:10;;;;;;;7.68;4.82;;;23.00;99.90;;;;;;5014772;28;20939;-63
2023/09/29 11:23:45;;;;;;;6.20;4.68;;;23.00;99.90;;;;;;5026757;28;20199;-65
2023/09/29 11:26:12;;;;;;;6.73;5.50;;;23.00;99.90;;;;;;5025970;28;20203;-63
2023/09/29 11:28:47;;;;;;;6.53;5.30;;;23.00;99.90;;;;;;5019894;28;20302;-63
2023/09/29 11:31:13;;;;;;;5.90;5.25;;;23.00;99.90;;;;;;5022308;28;20201;-65
2023/09/29 11:33:40;;;;;;;5.73;5.17;;;23.00;99.90;;;;;;5010735;28;20267;-65
2023/09/29 11:36:17;;;;;;;8.45;6.15;;;23.00;99.90;;;;;;5012477;28;20290;-63
2023/09/29 11:38:44;;;;;;;7.80;5.30;;;23.00;99.90;;;;;;5020292;28;20278;-65
2023/09/29 11:41:11;;;;;;;7.22;5.40;;;23.10;99.90;;;;;;5025902;28;20183;-64
2023/09/29 11:43:39;;;;;;;6.40;5.80;;;23.00;99.90;;;;;;5015900;28;20202;-63
2023/09/29 11:46:05;;;;;;;7.70;5.97;;;23.10;99.90;;;;;;5023100;28;20207;-65
2023/09/29 11:48:30;;;;;;;7.47;5.47;;;23.20;99.90;;;;;;5019713;28;20731;-67
2023/09/29 11:50:56;;;;;;;7.13;5.40;;;23.10;99.90;;;;;;5023528;28;20250;-64
2023/09/29 11:53:21;;;;;;;6.22;5.32;;;23.10;99.90;;;;;;5031076;28;20764;-65
2023/09/29 11:55:47;;;;;;;5.37;4.83;;;23.20;99.90;;;;;;5022378;28;20207;-72
2023/09/29 11:58:13;;;;;;;11.93;5.63;;;23.20;99.90;;;;;;5015577;28;20203;-66
2023/09/29 12:00:41;;;;;;;6.38;5.78;;;23.30;99.90;;;;;;5022404;28;20194;-63
2023/09/29 12:03:07;;;;;;;9.00;6.00;;;23.40;99.90;;;;;;5024161;28;20852;-63
2023/09/29 12:05:34;;;;;;;7.78;5.57;;;23.30;99.90;;;;;;5016007;28;20223;-62
2023/09/29 12:07:59;;;;;;;7.68;6.40;;;23.30;99.90;;;;;;5019403;28;20231;-63
2023/09/29 12:10:25;;;;;;;8.30;5.67;;;23.20;99.90;;;;;;5028431;28;20202;-62
2023/09/29 12:12:52;;;;;;;6.68;5.97;;;23.20;99.90;;;;;;5026821;28;20196;-62
2023/09/29 12:15:18;;;;;;;6.27;5.10;;;23.20;99.90;;;;;;5022875;28;20234;-63
2023/09/29 12:17:45;;;;;;;7.00;6.27;;;23.20;99.90;;;;;;5017735;28;20238;-63
2023/09/29 12:20:13;;;;;;;7.57;5.83;;;23.10;99.90;;;;;;5020547;28;20191;-63
2023/09/29 12:22:43;;;;;;;8.73;6.07;;;23.10;99.90;;;;;;5018547;28;20200;-65
2023/09/29 12:25:11;;;;;;;6.23;5.30;;;23.10;99.90;;;;;;5024175;28;20192;-63
2023/09/29 12:27:38;;;;;;;5.90;5.30;;;23.00;99.90;;;;;;5018266;28;20336;-65
2023/09/29 12:30:08;;;;;;;7.82;5.43;;;23.00;99.90;;;;;;5007878;28;20199;-68
2023/09/29 12:32:35;;;;;;;7.35;5.93;;;22.70;99.90;;;;;;5025341;28;20207;-63
2023/09/29 12:35:01;;;;;;;10.67;6.30;;;22.90;99.90;;;;;;5012577;28;20899;-62
2023/09/29 12:37:26;;;;;;;7.67;6.50;;;22.80;99.90;;;;;;5020319;28;20580;-65